Michalakis III — SVA7821 — position and weather

sailwx.info

Track history (hours):
 
Tides and Currents Weather Stations Pressure Air Temp Water Temp Dewpoint Dewpoint Depression Visibility Wind Speed Wind Dir Waves Ship Positions

Michalakis III

Last reported at 2017-Oct-19 09:02 UTC. Time now 2017-Oct-20 01:28 UTC.
Position N 38°11' E 024°07'.

Length 78 m; draft 3 m.

Type: Passenger vessel. MMSI: 240043200.

Date/timePositionNaut miles runAvg speedWind from/ knotsBaromVisibWave heightAir tempDewpointWater temp
2017-Oct-19 09:02N 38°11' E 024°07'1 9.7
2017-Oct-19 08:56N 38°11' E 024°08'1 0.5
2017-Oct-19 06:49N 38°11' E 024°07'0 0.0
2017-Oct-19 04:03N 38°11' E 024°07'1 9.8
2017-Oct-19 03:59N 38°11' E 024°07'0 0.0
2017-Oct-18 15:55N 38°11' E 024°08'1 1.0
2017-Oct-18 15:04N 38°11' E 024°07'110.3
2017-Oct-18 15:00N 38°11' E 024°08'0 0.2
2017-Oct-18 13:56N 38°11' E 024°08'0 0.3
2017-Oct-18 12:57N 38°11' E 024°07'1 1.6
2017-Oct-18 12:08N 38°11' E 024°09'110.6
2017-Oct-18 12:00N 38°11' E 024°07'1 0.7
2017-Oct-18 11:04N 38°11' E 024°07'1 9.8
2017-Oct-18 10:59N 38°11' E 024°07'1 0.0
2017-Oct-17 05:34N 38°11' E 024°09'2 1.4
2017-Oct-17 04:09N 38°11' E 024°06'2 0.2
2017-Oct-16 15:59N 38°11' E 024°09'2 2.2
2017-Oct-16 15:05N 38°11' E 024°07'1 9.7
2017-Oct-16 15:00N 38°11' E 024°08'4 0.2
2017-Oct-15 16:34N 38°11' E 024°12'310.6
2017-Oct-15 16:19N 38°11' E 024°09'1 1.5
2017-Oct-15 15:28N 38°11' E 024°08'1 0.3
2017-Oct-15 13:18N 38°11' E 024°07'2 1.5
2017-Oct-15 12:04N 38°11' E 024°09'2 0.3
2017-Oct-15 06:48N 38°11' E 024°07'2 1.8
2017-Oct-15 05:47N 38°11' E 024°09'2 1.8
2017-Oct-15 04:38N 38°11' E 024°06'1 9.4
2017-Oct-15 04:29N 38°11' E 024°08'1 0.1
2017-Oct-14 16:34N 38°11' E 024°09'1 9.9
2017-Oct-14 16:29N 38°11' E 024°08'1 1.0
2017-Oct-14 15:23N 38°11' E 024°07'1 0.6
2017-Oct-14 14:13N 38°11' E 024°08'1 0.8
2017-Oct-14 13:04N 38°11' E 024°06'1 0.9
2017-Oct-14 11:58N 38°11' E 024°08'1 0.9
2017-Oct-14 11:03N 38°11' E 024°07'1 9.9
2017-Oct-14 10:59N 38°11' E 024°07'1 0.0
2017-Oct-13 06:50N 38°11' E 024°07'2 1.4
2017-Oct-13 05:31N 38°11' E 024°09'1 0.8
2017-Oct-13 04:01N 38°11' E 024°07'0 9.3
2017-Oct-13 04:00N 38°11' E 024°08'0 0.0
2017-Oct-12 16:00N 38°11' E 024°08'1 0.8
2017-Oct-12 15:03N 38°11' E 024°07'111.2
2017-Oct-12 14:59N 38°11' E 024°08'0 0.1
2017-Oct-12 13:55N 38°11' E 024°08'1 1.0
2017-Oct-12 13:04N 38°11' E 024°06'1 9.9
2017-Oct-12 12:59N 38°11' E 024°07'0 0.0
2017-Oct-10 14:56N 38°11' E 024°08'0 0.0
2017-Oct-10 12:59N 38°11' E 024°07'0 0.2
2017-Oct-10 11:55N 38°11' E 024°08'1 0.8
2017-Oct-10 11:03N 38°11' E 024°07'1 9.7
2017-Oct-10 10:58N 38°11' E 024°08'  
Track history (hours):
 
Tides and Currents Weather Stations Pressure Air Temp Water Temp Dewpoint Dewpoint Depression Visibility Wind Speed Wind Dir Waves Ship Positions

Michalakis III

Last reported at 2017-Oct-19 09:02 UTC. Time now 2017-Oct-20 01:28 UTC.
Position N 38°11' E 024°07'.

Length 78 m; draft 3 m.

Type: Passenger vessel. MMSI: 240043200.

Date/timePositionNaut miles runAvg speedWind from/ knotsBaromVisibWave heightAir tempDewpointWater temp
2017-Oct-19 09:02N 38°11' E 024°07'1 9.7
2017-Oct-19 08:56N 38°11' E 024°08'1 0.5
2017-Oct-19 06:49N 38°11' E 024°07'0 0.0
2017-Oct-19 04:03N 38°11' E 024°07'1 9.8
2017-Oct-19 03:59N 38°11' E 024°07'0 0.0
2017-Oct-18 15:55N 38°11' E 024°08'1 1.0
2017-Oct-18 15:04N 38°11' E 024°07'110.3
2017-Oct-18 15:00N 38°11' E 024°08'0 0.2
2017-Oct-18 13:56N 38°11' E 024°08'0 0.3
2017-Oct-18 12:57N 38°11' E 024°07'1 1.6
2017-Oct-18 12:08N 38°11' E 024°09'110.6
2017-Oct-18 12:00N 38°11' E 024°07'1 0.7
2017-Oct-18 11:04N 38°11' E 024°07'1 9.8
2017-Oct-18 10:59N 38°11' E 024°07'1 0.0
2017-Oct-17 05:34N 38°11' E 024°09'2 1.4
2017-Oct-17 04:09N 38°11' E 024°06'2 0.2
2017-Oct-16 15:59N 38°11' E 024°09'2 2.2
2017-Oct-16 15:05N 38°11' E 024°07'1 9.7
2017-Oct-16 15:00N 38°11' E 024°08'4 0.2
2017-Oct-15 16:34N 38°11' E 024°12'310.6
2017-Oct-15 16:19N 38°11' E 024°09'1 1.5
2017-Oct-15 15:28N 38°11' E 024°08'1 0.3
2017-Oct-15 13:18N 38°11' E 024°07'2 1.5
2017-Oct-15 12:04N 38°11' E 024°09'2 0.3
2017-Oct-15 06:48N 38°11' E 024°07'2 1.8
2017-Oct-15 05:47N 38°11' E 024°09'2 1.8
2017-Oct-15 04:38N 38°11' E 024°06'1 9.4
2017-Oct-15 04:29N 38°11' E 024°08'1 0.1
2017-Oct-14 16:34N 38°11' E 024°09'1 9.9
2017-Oct-14 16:29N 38°11' E 024°08'1 1.0
2017-Oct-14 15:23N 38°11' E 024°07'1 0.6
2017-Oct-14 14:13N 38°11' E 024°08'1 0.8
2017-Oct-14 13:04N 38°11' E 024°06'1 0.9
2017-Oct-14 11:58N 38°11' E 024°08'1 0.9
2017-Oct-14 11:03N 38°11' E 024°07'1 9.9
2017-Oct-14 10:59N 38°11' E 024°07'1 0.0
2017-Oct-13 06:50N 38°11' E 024°07'2 1.4
2017-Oct-13 05:31N 38°11' E 024°09'1 0.8
2017-Oct-13 04:01N 38°11' E 024°07'0 9.3
2017-Oct-13 04:00N 38°11' E 024°08'0 0.0
2017-Oct-12 16:00N 38°11' E 024°08'1 0.8
2017-Oct-12 15:03N 38°11' E 024°07'111.2
2017-Oct-12 14:59N 38°11' E 024°08'0 0.1
2017-Oct-12 13:55N 38°11' E 024°08'1 1.0
2017-Oct-12 13:04N 38°11' E 024°06'1 9.9
2017-Oct-12 12:59N 38°11' E 024°07'0 0.0
2017-Oct-10 14:56N 38°11' E 024°08'0 0.0
2017-Oct-10 12:59N 38°11' E 024°07'0 0.2
2017-Oct-10 11:55N 38°11' E 024°08'1 0.8
2017-Oct-10 11:03N 38°11' E 024°07'1 9.7
2017-Oct-10 10:58N 38°11' E 024°08'  

Dump ship's entire track history